createdAt,value
2018-03-14T00:00:13.664Z,69.40
2018-03-14T00:01:14.131Z,69.20
2018-03-14T00:02:14.630Z,69.02
2018-03-14T00:03:15.075Z,69.04
2018-03-14T00:04:15.544Z,69.14
2018-03-14T00:05:16.014Z,69.19
2018-03-14T00:06:16.486Z,69.19
2018-03-14T00:07:16.955Z,69.29
2018-03-14T00:08:17.426Z,69.32
2018-03-14T00:09:17.898Z,69.49
2018-03-14T00:10:18.368Z,69.59
2018-03-14T00:11:18.839Z,69.90
2018-03-14T00:12:19.360Z,69.62
2018-03-14T00:13:19.780Z,69.56
2018-03-14T00:14:20.252Z,69.59
2018-03-14T00:15:20.723Z,69.67
2018-03-14T00:16:21.193Z,69.82
2018-03-14T00:17:21.664Z,69.77
2018-03-14T00:18:22.134Z,69.67
2018-03-14T00:19:22.651Z,69.64
2018-03-14T00:20:23.075Z,69.56
2018-03-14T00:21:23.546Z,69.33
2018-03-14T00:22:24.017Z,69.10
2018-03-14T00:23:24.488Z,69.17
2018-03-14T00:24:24.957Z,68.94
2018-03-14T00:25:25.431Z,68.99
2018-03-14T00:26:25.899Z,68.89
2018-03-14T00:27:26.369Z,68.83
2018-03-14T00:28:26.844Z,69.04
2018-03-14T00:29:27.312Z,68.96
2018-03-14T00:30:27.782Z,68.94
2018-03-14T00:31:28.253Z,68.86
2018-03-14T00:32:28.724Z,68.84
2018-03-14T00:33:29.193Z,68.73
2018-03-14T00:34:29.665Z,69.03
2018-03-14T00:35:30.136Z,69.55
2018-03-14T00:36:30.605Z,70.15
2018-03-14T00:37:31.075Z,70.41
2018-03-14T00:38:31.548Z,70.68
2018-03-14T00:39:32.018Z,70.38
2018-03-14T00:40:32.491Z,70.40
2018-03-14T00:41:32.959Z,70.45
2018-03-14T00:42:33.434Z,70.33
2018-03-14T00:43:33.904Z,70.07
2018-03-14T00:44:34.372Z,70.20
2018-03-14T00:45:34.843Z,70.22
2018-03-14T00:46:35.311Z,70.45
2018-03-14T00:47:35.783Z,70.18
2018-03-14T00:48:36.252Z,70.22
2018-03-14T00:49:36.723Z,70.30
2018-03-14T00:50:37.193Z,70.53
2018-03-14T00:51:37.664Z,70.58
2018-03-14T00:52:38.135Z,70.53
2018-03-14T00:53:38.606Z,70.83
2018-03-14T00:54:39.076Z,71.13
2018-03-14T00:55:39.547Z,71.13
2018-03-14T00:56:40.018Z,71.18
2018-03-14T00:57:40.491Z,71.23
2018-03-14T00:58:40.958Z,71.08
2018-03-14T00:59:41.429Z,71.18
2018-03-14T01:00:41.901Z,71.63
2018-03-14T01:01:42.369Z,71.48
2018-03-14T01:02:42.890Z,71.66
2018-03-14T01:03:43.310Z,71.73
2018-03-14T01:04:43.787Z,71.76
2018-03-14T01:05:44.252Z,71.78
2018-03-14T01:06:44.723Z,71.98
2018-03-14T01:07:45.191Z,71.75
2018-03-14T01:08:45.664Z,72.10
2018-03-14T01:09:46.133Z,72.15
2018-03-14T01:10:46.603Z,72.15
2018-03-14T01:11:47.075Z,72.27
2018-03-14T01:12:47.598Z,72.05
2018-03-14T01:13:48.015Z,72.15
2018-03-14T01:14:48.485Z,72.02
2018-03-14T01:15:48.958Z,71.92
2018-03-14T01:16:49.429Z,71.87
2018-03-14T01:17:49.896Z,71.75
2018-03-14T01:18:50.369Z,71.73
2018-03-14T01:19:50.839Z,71.97
2018-03-14T01:20:51.313Z,72.20
2018-03-14T01:21:51.781Z,72.02
2018-03-14T01:22:52.250Z,72.17
2018-03-14T01:23:52.722Z,72.27
2018-03-14T01:24:53.191Z,72.44
2018-03-14T01:25:53.662Z,72.27
2018-03-14T01:26:54.136Z,72.12
2018-03-14T01:27:54.656Z,72.02
2018-03-14T01:28:55.075Z,71.97
2018-03-14T01:29:55.543Z,71.99
2018-03-14T01:30:56.016Z,71.84
2018-03-14T01:31:56.485Z,71.84
2018-03-14T01:32:56.955Z,71.84
2018-03-14T01:33:57.424Z,71.81
2018-03-14T01:34:57.895Z,71.44
2018-03-14T01:35:58.368Z,71.48
2018-03-14T01:36:58.837Z,71.26
2018-03-14T01:37:59.460Z,71.29
2018-03-14T01:38:59.778Z,71.48
2018-03-14T01:40:00.249Z,71.53
2018-03-14T01:41:00.718Z,71.41
2018-03-14T01:42:01.188Z,71.36
2018-03-14T01:43:01.709Z,71.41
2018-03-14T01:44:02.130Z,71.54
2018-03-14T01:45:02.600Z,71.61
2018-03-14T01:46:03.072Z,71.48
2018-03-14T01:47:03.541Z,71.71
2018-03-14T01:48:04.012Z,71.50
2018-03-14T01:49:04.483Z,72.05
2018-03-14T01:50:04.953Z,71.88
2018-03-14T01:51:05.422Z,71.93
2018-03-14T01:52:05.893Z,72.30
2018-03-14T01:53:06.364Z,72.15
2018-03-14T01:54:06.833Z,72.27
2018-03-14T01:55:07.304Z,72.48
2018-03-14T01:56:07.777Z,72.87
2018-03-14T01:57:08.246Z,72.67
2018-03-14T01:58:08.719Z,73.07
2018-03-14T01:59:09.187Z,72.87
2018-03-14T02:00:09.657Z,72.99
2018-03-14T02:01:10.128Z,72.82
2018-03-14T02:02:10.596Z,72.69
2018-03-14T02:03:11.068Z,72.97
2018-03-14T02:04:11.539Z,73.09
2018-03-14T02:05:12.010Z,72.75
2018-03-14T02:06:12.479Z,72.84
2018-03-14T02:07:12.949Z,72.81
2018-03-14T02:08:13.471Z,72.84
2018-03-14T02:09:13.891Z,73.19
2018-03-14T02:10:14.360Z,73.36
2018-03-14T02:11:14.830Z,73.43
2018-03-14T02:12:15.302Z,73.48
2018-03-14T02:13:15.975Z,73.55
2018-03-14T02:14:16.243Z,73.73
2018-03-14T02:15:16.712Z,73.68
2018-03-14T02:16:17.185Z,73.72
2018-03-14T02:17:17.654Z,74.12
2018-03-14T02:18:18.125Z,73.92
2018-03-14T02:19:18.594Z,74.21
2018-03-14T02:20:19.065Z,74.18
2018-03-14T02:21:19.535Z,74.18
2018-03-14T02:22:20.006Z,74.02
2018-03-14T02:23:20.476Z,74.09
2018-03-14T02:24:20.946Z,74.09
2018-03-14T02:25:21.416Z,74.06
2018-03-14T02:26:21.888Z,74.28
2018-03-14T02:27:22.359Z,74.04
2018-03-14T02:28:22.828Z,74.31
2018-03-14T02:29:23.299Z,74.33
2018-03-14T02:30:23.768Z,74.36
2018-03-14T02:31:24.242Z,74.21
2018-03-14T02:32:24.710Z,74.14
2018-03-14T02:33:25.180Z,74.21
2018-03-14T02:34:25.655Z,74.18
2018-03-14T02:35:26.124Z,74.53
2018-03-14T02:36:26.590Z,74.62
2018-03-14T02:37:27.063Z,74.38
2018-03-14T02:38:27.533Z,74.21
2018-03-14T02:39:28.003Z,74.41
2018-03-14T02:40:28.471Z,74.45
2018-03-14T02:41:28.945Z,74.49
2018-03-14T02:42:29.415Z,74.26
2018-03-14T02:43:29.887Z,74.35
2018-03-14T02:44:30.358Z,74.65
2018-03-14T02:45:30.826Z,74.74
2018-03-14T02:46:31.297Z,74.50
2018-03-14T02:47:31.765Z,74.57
2018-03-14T02:48:32.239Z,74.56
2018-03-14T02:49:32.707Z,74.47
2018-03-14T02:50:33.175Z,74.20
2018-03-14T02:51:33.647Z,73.81
2018-03-14T02:52:34.117Z,73.88
2018-03-14T02:53:34.593Z,73.66
2018-03-14T02:54:35.058Z,73.69
2018-03-14T02:55:35.533Z,73.57
2018-03-14T02:56:36.004Z,73.61
2018-03-14T02:57:36.474Z,73.24
2018-03-14T02:58:36.941Z,73.00
2018-03-14T02:59:37.415Z,73.03
2018-03-14T03:00:37.884Z,73.37
2018-03-14T03:01:38.355Z,73.47
2018-03-14T03:02:38.826Z,73.42
2018-03-14T03:04:39.766Z,73.61
2018-03-14T03:05:40.235Z,73.56
2018-03-14T03:06:40.708Z,73.71
2018-03-14T03:07:41.177Z,74.07
2018-03-14T03:08:41.646Z,74.10
2018-03-14T03:09:42.119Z,74.21
2018-03-14T03:10:42.592Z,74.25
2018-03-14T03:11:43.058Z,74.42
2018-03-14T03:13:44.000Z,74.46
2018-03-14T03:14:44.465Z,74.27
2018-03-14T03:15:44.938Z,74.44
2018-03-14T03:17:45.880Z,74.62
2018-03-14T03:18:46.350Z,74.92
2018-03-14T03:20:47.289Z,75.33
2018-03-14T03:21:47.756Z,75.17
2018-03-14T03:22:48.229Z,75.13
2018-03-14T03:23:48.700Z,75.18
2018-03-14T03:24:49.169Z,75.31
2018-03-14T03:25:49.640Z,75.64
2018-03-14T03:26:50.111Z,75.38
2018-03-14T03:27:50.580Z,75.21
2018-03-14T03:28:51.099Z,75.18
2018-03-14T03:29:51.521Z,75.10
2018-03-14T03:30:51.993Z,75.18
2018-03-14T03:31:52.461Z,75.25
2018-03-14T03:32:52.932Z,75.20
2018-03-14T03:33:53.408Z,74.81
2018-03-14T03:34:53.870Z,74.98
2018-03-14T03:35:54.344Z,75.05
2018-03-14T03:36:54.812Z,75.01
2018-03-14T03:37:55.282Z,75.15
2018-03-14T03:38:55.746Z,75.37
2018-03-14T03:39:56.221Z,75.63
2018-03-14T03:41:57.163Z,75.54
2018-03-14T03:42:57.632Z,75.49
2018-03-14T03:43:58.154Z,75.47
2018-03-14T03:44:58.566Z,75.37
2018-03-14T03:46:59.511Z,75.25
2018-03-14T03:47:59.983Z,75.24
2018-03-14T03:49:00.448Z,75.15
2018-03-14T03:50:00.927Z,75.44
2018-03-14T03:51:01.393Z,75.60
2018-03-14T03:52:01.900Z,75.39
2018-03-14T03:53:02.334Z,75.49
2018-03-14T03:54:02.806Z,75.43
2018-03-14T03:55:03.266Z,75.29
2018-03-14T03:56:03.745Z,75.64
2018-03-14T03:57:04.220Z,75.65
2018-03-14T03:58:04.687Z,75.77
2018-03-14T03:59:05.149Z,75.82
2018-03-14T04:00:05.623Z,75.82
2018-03-14T04:01:06.093Z,75.77
2018-03-14T04:02:06.564Z,75.72
2018-03-14T04:04:07.658Z,75.62
2018-03-14T04:05:07.968Z,75.53
2018-03-14T04:06:08.443Z,75.38
2018-03-14T04:07:08.913Z,74.99
2018-03-14T04:08:09.384Z,74.97
2018-03-14T04:09:09.850Z,74.85
2018-03-14T04:10:10.325Z,74.80
2018-03-14T04:11:10.792Z,74.94
2018-03-14T04:12:11.263Z,74.65
2018-03-14T04:13:11.735Z,74.46
2018-03-14T04:14:12.406Z,74.61
2018-03-14T04:15:12.676Z,74.55
2018-03-14T04:16:13.139Z,74.55
2018-03-14T04:17:13.613Z,74.51
2018-03-14T04:18:14.084Z,74.46
2018-03-14T04:19:14.557Z,74.07
2018-03-14T04:20:15.024Z,73.94
2018-03-14T04:21:15.492Z,73.72
2018-03-14T04:22:15.959Z,73.85
2018-03-14T04:23:16.432Z,73.55
2018-03-14T04:24:16.902Z,73.57
2018-03-14T04:25:17.374Z,73.38
2018-03-14T04:26:17.839Z,73.52
2018-03-14T04:27:18.310Z,73.19
2018-03-14T04:28:18.782Z,73.46
2018-03-14T04:29:19.253Z,73.42
2018-03-14T04:30:19.723Z,73.56
2018-03-14T04:31:20.191Z,73.24
2018-03-14T04:32:20.662Z,73.04
2018-03-14T04:33:21.133Z,72.85
2018-03-14T04:34:21.604Z,72.67
2018-03-14T04:35:22.067Z,72.44
2018-03-14T04:36:22.542Z,72.27
2018-03-14T04:37:23.020Z,72.02
2018-03-14T04:38:23.477Z,71.95
2018-03-14T04:39:23.954Z,72.07
2018-03-14T04:40:24.421Z,72.07
2018-03-14T04:41:24.891Z,72.20
2018-03-14T04:43:25.826Z,72.11
2018-03-14T04:44:26.352Z,71.86
2018-03-14T04:45:26.770Z,71.89
2018-03-14T04:46:27.237Z,72.14
2018-03-14T04:47:27.710Z,72.24
2018-03-14T04:48:28.182Z,72.43
2018-03-14T04:49:28.651Z,72.41
2018-03-14T04:51:29.585Z,72.70
2018-03-14T04:53:30.531Z,72.30
2018-03-14T04:54:31.001Z,72.21
2018-03-14T04:55:31.465Z,72.33
2018-03-14T04:56:31.941Z,72.35
2018-03-14T04:57:32.410Z,72.21
2018-03-14T04:58:32.876Z,71.97
2018-03-14T04:59:33.348Z,71.71
2018-03-14T05:00:33.820Z,71.51
2018-03-14T05:01:34.290Z,71.31
2018-03-14T05:02:34.755Z,71.26
2018-03-14T05:03:35.233Z,71.10
2018-03-14T05:04:35.749Z,71.07
2018-03-14T05:05:36.169Z,70.92
2018-03-14T05:06:36.640Z,70.87
2018-03-14T05:07:37.108Z,70.82
2018-03-14T05:08:37.579Z,70.69
2018-03-14T05:09:38.049Z,70.76
2018-03-14T05:10:38.517Z,70.82
2018-03-14T05:11:38.989Z,70.89
2018-03-14T05:12:39.456Z,70.62
2018-03-14T05:13:39.928Z,70.64
2018-03-14T05:14:40.397Z,70.56
2018-03-14T05:15:40.867Z,70.70
2018-03-14T05:16:41.337Z,70.58
2018-03-14T05:17:41.806Z,70.73
2018-03-14T05:18:42.270Z,70.70
2018-03-14T05:20:43.215Z,71.15
2018-03-14T05:21:43.685Z,71.13
2018-03-14T05:22:44.158Z,71.00
2018-03-14T05:23:44.625Z,71.12
2018-03-14T05:24:45.097Z,71.27
2018-03-14T05:25:45.564Z,71.53
2018-03-14T05:26:46.046Z,72.12
2018-03-14T05:27:46.503Z,71.97
2018-03-14T05:28:46.972Z,72.12
2018-03-14T05:29:47.443Z,72.12
2018-03-14T05:30:59.700Z,72.02
2018-03-14T05:31:48.381Z,72.21
2018-03-14T05:32:48.847Z,72.09
2018-03-14T05:34:49.791Z,71.77
2018-03-14T05:36:50.730Z,71.77
2018-03-14T05:38:51.671Z,71.44
2018-03-14T05:39:52.135Z,71.42
2018-03-14T05:40:52.658Z,71.52
2018-03-14T05:41:53.082Z,71.42
2018-03-14T05:42:53.549Z,71.41
2018-03-14T05:43:54.017Z,71.96
2018-03-14T05:44:54.487Z,72.11
2018-03-14T05:45:54.951Z,72.55
2018-03-14T05:46:55.425Z,72.72
2018-03-14T05:47:55.890Z,72.51
2018-03-14T05:49:56.835Z,72.92
2018-03-14T05:51:08.738Z,73.04
2018-03-14T05:51:57.769Z,72.92
2018-03-14T05:52:58.245Z,72.95
2018-03-14T05:53:58.715Z,73.14
2018-03-14T05:54:59.182Z,73.14
2018-03-14T05:55:59.855Z,73.22
2018-03-14T05:57:00.123Z,73.46
2018-03-14T05:59:01.062Z,73.83
2018-03-14T06:00:01.530Z,74.14
2018-03-14T06:01:13.738Z,74.24
2018-03-14T06:02:02.471Z,74.51
2018-03-14T06:03:02.941Z,74.36
2018-03-14T06:04:03.409Z,74.22
2018-03-14T06:05:03.878Z,73.78
2018-03-14T06:06:04.398Z,73.77
2018-03-14T06:07:04.818Z,74.10
2018-03-14T06:08:05.287Z,74.12
2018-03-14T06:10:06.223Z,74.00
2018-03-14T06:11:06.696Z,74.19
2018-03-14T06:12:07.215Z,74.17
2018-03-14T06:13:07.635Z,74.32
2018-03-14T06:14:08.104Z,74.41
2018-03-14T06:15:08.574Z,74.60
2018-03-14T06:16:09.042Z,74.80
2018-03-14T06:18:09.981Z,75.28
2018-03-14T06:20:10.914Z,75.05
2018-03-14T06:21:11.390Z,75.26
2018-03-14T06:22:11.863Z,75.19
2018-03-14T06:23:12.330Z,74.91
2018-03-14T06:24:12.799Z,75.00
2018-03-14T06:25:13.268Z,74.85
2018-03-14T06:26:13.735Z,74.62
2018-03-14T06:27:14.207Z,74.94
2018-03-14T06:28:14.675Z,74.96
2018-03-14T06:29:15.145Z,75.39
2018-03-14T06:30:15.614Z,75.52
2018-03-14T06:31:27.771Z,75.65
2018-03-14T06:32:16.553Z,75.72
2018-03-14T06:33:17.022Z,75.47
2018-03-14T06:34:17.492Z,75.39
2018-03-14T06:35:17.962Z,75.54
2018-03-14T06:36:30.180Z,75.83
2018-03-14T06:37:18.900Z,75.69
2018-03-14T06:38:19.366Z,75.97
2018-03-14T06:39:19.840Z,76.03
2018-03-14T06:40:20.307Z,75.91
2018-03-14T06:41:20.830Z,75.70
2018-03-14T06:42:21.248Z,75.48
2018-03-14T06:43:21.718Z,75.70
2018-03-14T06:44:22.187Z,75.48
2018-03-14T06:45:22.658Z,75.80
2018-03-14T06:46:23.121Z,75.58
2018-03-14T06:47:23.841Z,75.74
2018-03-14T06:48:24.064Z,75.71
2018-03-14T06:49:24.534Z,75.99
2018-03-14T06:50:25.002Z,76.07
2018-03-14T06:51:36.750Z,75.78
2018-03-14T06:52:25.941Z,75.47
2018-03-14T06:53:26.406Z,75.67
2018-03-14T06:54:26.884Z,75.77
2018-03-14T06:55:27.352Z,75.96
2018-03-14T06:56:27.820Z,75.79
2018-03-14T06:57:28.290Z,75.55
2018-03-14T06:58:28.759Z,75.39
2018-03-14T06:59:29.229Z,75.08
2018-03-14T07:00:29.700Z,75.05
2018-03-14T07:01:30.167Z,74.96
2018-03-14T07:02:30.638Z,74.95
2018-03-14T07:03:31.107Z,75.11
2018-03-14T07:04:31.577Z,74.89
2018-03-14T07:05:32.048Z,74.96
2018-03-14T07:06:32.520Z,74.90
2018-03-14T07:07:32.984Z,75.07
2018-03-14T07:08:33.454Z,74.74
2018-03-14T07:09:33.926Z,74.49
2018-03-14T07:10:34.395Z,74.54
2018-03-14T07:11:46.806Z,74.47
2018-03-14T07:13:35.803Z,74.50
2018-03-14T07:14:36.280Z,74.46
2018-03-14T07:15:36.744Z,74.26
2018-03-14T07:16:37.212Z,74.05
2018-03-14T07:17:37.689Z,73.91
2018-03-14T07:18:38.152Z,73.69
2018-03-14T07:19:38.618Z,73.64
2018-03-14T07:20:39.091Z,73.79
2018-03-14T07:22:40.034Z,73.74
2018-03-14T07:23:40.501Z,74.12
2018-03-14T07:24:40.971Z,73.91
2018-03-14T07:25:41.441Z,73.70
2018-03-14T07:26:41.909Z,73.66
2018-03-14T07:27:53.816Z,73.85
2018-03-14T07:28:42.844Z,73.68
2018-03-14T07:29:43.320Z,73.53
2018-03-14T07:30:43.788Z,73.59
2018-03-14T07:31:44.261Z,73.81
2018-03-14T07:32:44.751Z,74.01
2018-03-14T07:33:45.200Z,74.05
2018-03-14T07:34:45.700Z,74.32
2018-03-14T07:35:46.139Z,74.14
2018-03-14T07:36:46.608Z,74.23
2018-03-14T07:37:47.130Z,74.38
2018-03-14T07:38:47.548Z,74.02
2018-03-14T07:39:48.014Z,74.15
2018-03-14T07:41:48.958Z,74.13
2018-03-14T07:43:49.896Z,74.44
2018-03-14T07:45:50.838Z,74.26
2018-03-14T07:46:51.301Z,74.53
2018-03-14T07:47:51.829Z,74.37
2018-03-14T07:48:52.248Z,74.57
2018-03-14T07:49:52.718Z,74.41
2018-03-14T07:50:53.189Z,74.29
2018-03-14T07:51:53.652Z,74.27
2018-03-14T07:53:54.597Z,74.34
2018-03-14T07:54:55.062Z,74.35
2018-03-14T07:55:55.538Z,74.38
2018-03-14T07:56:56.009Z,74.41
2018-03-14T07:57:56.624Z,74.42
2018-03-14T07:58:56.970Z,74.37
2018-03-14T07:59:57.420Z,74.33
2018-03-14T08:00:57.891Z,74.21
2018-03-14T08:01:58.361Z,74.19
2018-03-14T08:02:58.825Z,74.19
2018-03-14T08:03:59.302Z,74.17
2018-03-14T08:04:59.770Z,74.13
2018-03-14T08:06:00.243Z,74.13
2018-03-14T08:07:00.715Z,74.03
2018-03-14T08:08:12.814Z,74.11
2018-03-14T08:09:01.661Z,74.11
2018-03-14T08:10:02.118Z,74.07
2018-03-14T08:11:02.594Z,74.00
2018-03-14T08:12:03.062Z,73.85
2018-03-14T08:13:03.534Z,73.80
2018-03-14T08:14:04.014Z,73.83
2018-03-14T08:15:04.477Z,73.71
2018-03-14T08:16:04.947Z,73.59
2018-03-14T08:17:05.416Z,73.54
2018-03-14T08:18:05.932Z,73.66
2018-03-14T08:19:06.357Z,73.59
2018-03-14T08:20:06.827Z,73.57
2018-03-14T08:21:07.298Z,73.62
2018-03-14T08:22:07.769Z,73.67
2018-03-14T08:23:08.285Z,73.74
2018-03-14T08:24:08.710Z,73.57
2018-03-14T08:25:09.180Z,73.57
2018-03-14T08:26:09.650Z,73.77
2018-03-14T08:27:10.119Z,73.70
2018-03-14T08:28:21.818Z,73.63
2018-03-14T08:29:11.062Z,73.68
2018-03-14T08:30:11.534Z,73.58
2018-03-14T08:31:12.008Z,73.53
2018-03-14T08:32:12.474Z,73.49
2018-03-14T08:33:12.993Z,73.42
2018-03-14T08:34:13.417Z,73.39
2018-03-14T08:35:13.884Z,73.37
2018-03-14T08:36:14.356Z,73.40
2018-03-14T08:37:14.878Z,73.37
2018-03-14T08:38:15.293Z,73.28
2018-03-14T08:39:15.767Z,73.18
2018-03-14T08:40:16.240Z,73.05
2018-03-14T08:42:17.179Z,72.86
2018-03-14T08:43:17.652Z,72.76
2018-03-14T08:44:18.120Z,72.66
2018-03-14T08:45:18.592Z,72.59
2018-03-14T08:46:19.062Z,72.52
2018-03-14T08:47:19.533Z,72.50
2018-03-14T08:48:19.999Z,72.48
2018-03-14T08:49:20.474Z,72.45
2018-03-14T08:50:20.979Z,72.43
2018-03-14T08:51:21.418Z,72.39
2018-03-14T08:52:21.887Z,72.39
2018-03-14T08:53:22.357Z,72.39
2018-03-14T08:55:23.302Z,72.48
2018-03-14T08:56:23.771Z,72.48
2018-03-14T08:57:24.241Z,72.44
2018-03-14T08:58:24.709Z,72.47
2018-03-14T08:59:25.182Z,72.50
2018-03-14T09:00:25.654Z,72.41
2018-03-14T09:01:26.125Z,72.34
2018-03-14T09:02:26.595Z,72.34
2018-03-14T09:03:27.116Z,72.41
2018-03-14T09:04:27.534Z,72.44
2018-03-14T09:05:28.007Z,72.57
2018-03-14T09:06:28.479Z,72.55
2018-03-14T09:07:28.950Z,72.69
2018-03-14T09:08:29.418Z,72.75
2018-03-14T09:09:29.892Z,72.89
2018-03-14T09:10:30.363Z,72.98
2018-03-14T09:11:30.836Z,73.09
2018-03-14T09:12:31.306Z,73.28
2018-03-14T09:14:32.250Z,73.66
2018-03-14T09:15:32.723Z,73.88
2018-03-14T09:16:33.192Z,74.07
2018-03-14T09:17:33.663Z,74.43
2018-03-14T09:18:34.131Z,74.57
2018-03-14T09:19:34.607Z,74.63
2018-03-14T09:20:35.079Z,74.55
2018-03-14T09:21:35.550Z,74.59
2018-03-14T09:22:36.023Z,74.50
2018-03-14T09:23:36.543Z,74.36
2018-03-14T09:24:36.966Z,74.40
2018-03-14T09:25:37.436Z,74.16
2018-03-14T09:26:37.901Z,74.05
2018-03-14T09:27:38.379Z,74.04
2018-03-14T09:28:38.903Z,74.02
2018-03-14T09:29:39.323Z,73.83
2018-03-14T09:30:39.790Z,73.74
2018-03-14T09:31:40.268Z,73.68
2018-03-14T09:33:52.948Z,73.42
2018-03-14T09:34:41.680Z,73.33
2018-03-14T09:35:42.156Z,73.07
2018-03-14T09:36:42.627Z,73.15
2018-03-14T09:37:43.100Z,73.11
2018-03-14T09:39:44.098Z,72.42
2018-03-14T09:40:44.516Z,72.25
2018-03-14T09:41:44.988Z,72.18
2018-03-14T09:42:45.460Z,72.27
2018-03-14T09:44:46.403Z,72.06
2018-03-14T09:45:46.876Z,71.84
2018-03-14T09:46:47.349Z,71.56
2018-03-14T09:47:47.817Z,71.32
2018-03-14T09:48:48.295Z,71.33
2018-03-14T09:49:48.766Z,71.28
2018-03-14T09:50:49.235Z,71.01
2018-03-14T09:51:49.713Z,70.94
2018-03-14T09:52:50.184Z,70.82
2018-03-14T09:53:50.706Z,70.70
2018-03-14T09:54:51.132Z,70.37
2018-03-14T09:56:52.075Z,70.08
2018-03-14T09:57:52.544Z,70.06
2018-03-14T09:58:53.021Z,69.85
2018-03-14T09:59:53.493Z,69.76
2018-03-14T10:00:53.970Z,69.66
2018-03-14T10:01:54.438Z,69.51
2018-03-14T10:02:54.913Z,69.57
2018-03-14T10:03:55.439Z,69.37
2018-03-14T10:04:55.859Z,69.17
2018-03-14T10:05:56.331Z,68.96
2018-03-14T10:07:57.286Z,68.66
2018-03-14T10:08:57.750Z,68.48
2018-03-14T10:09:58.223Z,68.35
2018-03-14T10:10:58.695Z,68.28
2018-03-14T10:11:59.171Z,68.23
2018-03-14T10:12:59.642Z,68.08
2018-03-14T10:14:00.119Z,67.74
2018-03-14T10:15:00.584Z,67.58
2018-03-14T10:16:01.064Z,67.40
2018-03-14T10:17:01.536Z,67.09
2018-03-14T10:19:02.483Z,66.86
2018-03-14T10:20:02.956Z,66.86
2018-03-14T10:21:03.427Z,66.55
2018-03-14T10:22:03.894Z,66.41
2018-03-14T10:23:04.375Z,66.28
2018-03-14T10:24:04.899Z,66.34
2018-03-14T10:25:05.325Z,66.40
2018-03-14T10:26:05.789Z,66.30
2018-03-14T10:27:06.268Z,66.22
2018-03-14T10:28:06.741Z,66.36
2018-03-14T10:29:07.270Z,66.17
2018-03-14T10:30:07.690Z,66.20
2018-03-14T10:31:08.160Z,66.07
2018-03-14T10:32:08.636Z,66.13
2018-03-14T10:33:09.103Z,66.17
2018-03-14T10:34:09.633Z,66.06
2018-03-14T10:35:10.055Z,66.04
2018-03-14T10:36:10.529Z,65.94
2018-03-14T10:37:11.003Z,65.81
2018-03-14T10:38:11.473Z,65.79
2018-03-14T10:39:11.950Z,65.87
2018-03-14T10:41:12.898Z,65.71
2018-03-14T10:42:13.371Z,65.56
2018-03-14T10:43:13.845Z,65.54
2018-03-14T10:44:14.321Z,65.44
2018-03-14T10:45:14.794Z,65.36
2018-03-14T10:46:15.267Z,65.39
2018-03-14T10:47:15.740Z,65.15
2018-03-14T10:48:16.208Z,64.91
2018-03-14T10:49:16.743Z,64.75
2018-03-14T10:50:17.162Z,64.57
2018-03-14T10:52:18.111Z,63.92
2018-03-14T10:53:18.590Z,63.57
2018-03-14T10:54:19.109Z,63.55
2018-03-14T10:55:19.532Z,63.50
2018-03-14T10:56:20.008Z,63.50
2018-03-14T10:57:20.475Z,63.53
2018-03-14T10:58:20.955Z,63.46
2018-03-14T10:59:21.481Z,63.55
2018-03-14T11:01:22.372Z,63.01
2018-03-14T11:02:22.855Z,62.77
2018-03-14T11:03:23.326Z,62.66
2018-03-14T11:04:23.852Z,62.56
2018-03-14T11:05:24.276Z,62.54
2018-03-14T11:06:24.749Z,62.19
2018-03-14T11:07:25.225Z,61.98
2018-03-14T11:08:25.697Z,62.21
2018-03-14T11:09:26.219Z,61.94
2018-03-14T11:10:26.648Z,61.97
2018-03-14T11:11:27.120Z,61.89
2018-03-14T11:12:27.596Z,61.79
2018-03-14T11:13:28.072Z,61.51
2018-03-14T11:14:28.546Z,61.69
2018-03-14T11:15:29.021Z,61.35
2018-03-14T11:16:29.494Z,61.55
2018-03-14T11:17:29.964Z,61.42
2018-03-14T11:18:30.444Z,61.42
2018-03-14T11:20:31.395Z,61.35
2018-03-14T11:21:31.888Z,61.24
2018-03-14T11:23:32.819Z,61.47
2018-03-14T11:24:45.030Z,61.56
2018-03-14T11:25:33.815Z,61.53
2018-03-14T11:26:34.244Z,61.28
2018-03-14T11:27:34.717Z,61.43
2018-03-14T11:28:35.186Z,61.48
2018-03-14T11:30:36.137Z,61.32
2018-03-14T11:31:36.617Z,61.35
2018-03-14T11:32:37.094Z,61.63
2018-03-14T11:33:37.566Z,61.41
2018-03-14T11:34:38.036Z,61.47
2018-03-14T11:35:38.567Z,61.58
2018-03-14T11:36:38.991Z,61.75
2018-03-14T11:37:39.465Z,61.86
2018-03-14T11:38:39.939Z,61.98
2018-03-14T11:39:40.414Z,61.76
2018-03-14T11:40:53.081Z,61.87
2018-03-14T11:41:41.362Z,61.81
2018-03-14T11:42:41.833Z,62.04
2018-03-14T11:43:42.301Z,62.12
2018-03-14T11:44:42.832Z,62.29
2018-03-14T11:45:43.255Z,62.32
2018-03-14T11:46:43.725Z,62.38
2018-03-14T11:47:44.200Z,62.47
2018-03-14T11:48:44.673Z,62.47
2018-03-14T11:49:45.146Z,62.64
2018-03-14T11:50:57.050Z,62.67
2018-03-14T11:51:46.083Z,62.81
2018-03-14T11:52:46.559Z,62.89
2018-03-14T11:53:47.031Z,62.79
2018-03-14T11:54:47.503Z,62.76
2018-03-14T11:56:00.115Z,62.92
2018-03-14T11:56:48.446Z,62.93
2018-03-14T11:57:48.917Z,62.73
2018-03-14T11:58:49.388Z,62.71
2018-03-14T11:59:49.856Z,62.77
2018-03-14T12:00:50.332Z,62.82
2018-03-14T12:01:50.802Z,62.83
2018-03-14T12:02:51.270Z,62.94
2018-03-14T12:03:51.744Z,62.92
2018-03-14T12:04:52.212Z,62.67
2018-03-14T12:05:52.679Z,62.78
2018-03-14T12:06:53.154Z,62.67
2018-03-14T12:07:53.620Z,62.70
2018-03-14T12:08:54.098Z,62.73
2018-03-14T12:09:54.568Z,62.57
2018-03-14T12:10:55.038Z,62.60
2018-03-14T12:11:55.515Z,62.60
2018-03-14T12:12:55.981Z,62.68
2018-03-14T12:13:56.454Z,62.69
2018-03-14T12:14:56.918Z,62.57
2018-03-14T12:15:57.396Z,62.47
2018-03-14T12:16:57.870Z,62.11
2018-03-14T12:17:58.340Z,62.22
2018-03-14T12:18:58.811Z,62.17
2018-03-14T12:19:59.278Z,62.31
2018-03-14T12:20:59.761Z,62.40
2018-03-14T12:22:00.227Z,62.12
2018-03-14T12:23:00.699Z,61.98
2018-03-14T12:24:01.169Z,62.10
2018-03-14T12:25:01.644Z,61.94
2018-03-14T12:26:02.162Z,61.89
2018-03-14T12:28:03.060Z,62.03
2018-03-14T12:29:03.534Z,61.68
2018-03-14T12:30:04.003Z,61.71
2018-03-14T12:31:16.112Z,61.49
2018-03-14T12:32:04.954Z,61.30
2018-03-14T12:33:05.428Z,61.58
2018-03-14T12:34:05.902Z,61.42
2018-03-14T12:36:06.846Z,61.12
2018-03-14T12:37:07.320Z,61.30
2018-03-14T12:38:07.792Z,61.33
2018-03-14T12:39:08.266Z,60.97
2018-03-14T12:40:08.739Z,60.94
2018-03-14T12:41:09.207Z,60.87
2018-03-14T12:42:09.746Z,61.01
2018-03-14T12:43:10.162Z,61.07
2018-03-14T12:44:10.636Z,60.85
2018-03-14T12:45:11.107Z,60.60
2018-03-14T12:46:11.635Z,60.69
2018-03-14T12:47:12.059Z,60.63
2018-03-14T12:48:12.534Z,60.61
2018-03-14T12:49:13.007Z,60.39
2018-03-14T12:50:13.481Z,60.39
2018-03-14T12:51:14.009Z,60.53
2018-03-14T12:52:14.470Z,60.31
2018-03-14T12:53:14.904Z,60.62
2018-03-14T12:54:15.381Z,60.20
2018-03-14T12:55:15.856Z,59.95
2018-03-14T12:56:16.367Z,60.23
2018-03-14T12:57:16.820Z,60.07
2018-03-14T12:59:17.753Z,60.16
2018-03-14T13:00:18.228Z,60.24
2018-03-14T13:02:19.183Z,59.85
2018-03-14T13:03:19.655Z,60.02
2018-03-14T13:04:20.131Z,59.89
2018-03-14T13:05:20.604Z,59.75
2018-03-14T13:06:21.125Z,59.92
2018-03-14T13:07:21.549Z,59.89
2018-03-14T13:08:22.028Z,59.96
2018-03-14T13:09:22.499Z,59.99
2018-03-14T13:10:22.979Z,59.82
2018-03-14T13:11:23.448Z,59.68
2018-03-14T13:12:23.927Z,59.60
2018-03-14T13:13:24.401Z,59.54
2018-03-14T13:15:25.349Z,59.67
2018-03-14T13:16:25.870Z,59.76
2018-03-14T13:17:26.301Z,59.39
2018-03-14T13:18:26.772Z,59.30
2018-03-14T13:19:27.245Z,59.42
2018-03-14T13:20:27.717Z,59.48
2018-03-14T13:21:28.186Z,59.17
2018-03-14T13:24:29.610Z,59.35
2018-03-14T13:25:30.097Z,58.86
2018-03-14T13:26:30.606Z,58.81
2018-03-14T13:27:31.026Z,58.81
2018-03-14T13:28:31.495Z,58.92
2018-03-14T13:29:31.968Z,58.96
2018-03-14T13:30:32.440Z,58.93
2018-03-14T13:31:32.907Z,58.93
2018-03-14T13:32:33.384Z,58.85
2018-03-14T13:33:33.856Z,59.08
2018-03-14T13:34:34.327Z,58.94
2018-03-14T13:35:34.796Z,58.99
2018-03-14T13:36:35.318Z,59.05
2018-03-14T13:37:35.739Z,58.79
2018-03-14T13:38:36.211Z,58.56
2018-03-14T13:39:36.681Z,58.63
2018-03-14T13:40:37.153Z,58.60
2018-03-14T13:41:37.674Z,58.63
2018-03-14T13:42:38.095Z,58.74
2018-03-14T13:43:38.567Z,58.86
2018-03-14T13:44:39.039Z,58.92
2018-03-14T13:45:39.510Z,58.80